Terminal Aerodrome Forecast
Issued by NWS Albany, NY

Home | Current Version | Previous Version | Text Only | Print | Product List | Glossary On
Versions: 1 2 3 4 5 6 7 8 9 10 11 12 13 14 15 16 17 18 19 20 21
000
FTUS41 KALY 011100
TAFGFL
TAF
KGFL 011132Z 0112/0212 VRB03KT P6SM VCSH SCT035 OVC060
     FM011500 05006KT P6SM SCT040 BKN250
     FM020400 03004KT P6SM BKN070 OVC150
     FM020700 02006KT 3SM -SN BR BKN025 OVC040
     FM020900 02009KT 1 1/2SM -SN BR BKN008 OVC015=

USA.gov is the U.S. government's official web portal to all federal, state and local government web resources and services.